sensor_id;sensor_type;location;lat;lon;timestamp;temperature;humidity
75705;DHT22;69706;44.726;37.760;2023-05-07T00:00:04;20.92;57.10
75705;DHT22;69706;44.726;37.760;2023-05-07T00:01:09;20.86;57.58
75705;DHT22;69706;44.726;37.760;2023-05-07T00:02:11;20.87;57.61
75705;DHT22;69706;44.726;37.760;2023-05-07T00:03:12;20.84;57.48
75705;DHT22;69706;44.726;37.760;2023-05-07T00:04:14;20.84;57.49
75705;DHT22;69706;44.726;37.760;2023-05-07T00:05:15;20.88;57.41
75705;DHT22;69706;44.726;37.760;2023-05-07T00:06:17;20.84;57.59
75705;DHT22;69706;44.726;37.760;2023-05-07T00:07:18;20.77;57.70
75705;DHT22;69706;44.726;37.760;2023-05-07T00:08:19;20.73;57.64
75705;DHT22;69706;44.726;37.760;2023-05-07T00:09:21;20.73;57.74
75705;DHT22;69706;44.726;37.760;2023-05-07T00:10:22;20.77;57.62
75705;DHT22;69706;44.726;37.760;2023-05-07T00:11:23;20.74;57.60
75705;DHT22;69706;44.726;37.760;2023-05-07T00:12:25;20.77;57.45
75705;DHT22;69706;44.726;37.760;2023-05-07T00:13:26;20.74;57.72
75705;DHT22;69706;44.726;37.760;2023-05-07T00:14:28;20.75;57.64
75705;DHT22;69706;44.726;37.760;2023-05-07T00:15:29;20.76;57.78
75705;DHT22;69706;44.726;37.760;2023-05-07T00:16:30;20.72;57.73
75705;DHT22;69706;44.726;37.760;2023-05-07T00:17:32;20.76;57.54
75705;DHT22;69706;44.726;37.760;2023-05-07T00:18:34;20.79;57.55
75705;DHT22;69706;44.726;37.760;2023-05-07T00:19:35;20.77;57.48
75705;DHT22;69706;44.726;37.760;2023-05-07T00:20:36;20.69;57.66
75705;DHT22;69706;44.726;37.760;2023-05-07T00:21:37;20.63;57.80
75705;DHT22;69706;44.726;37.760;2023-05-07T00:22:38;20.68;57.73
75705;DHT22;69706;44.726;37.760;2023-05-07T00:23:40;20.70;57.71
75705;DHT22;69706;44.726;37.760;2023-05-07T00:24:41;20.68;57.69
75705;DHT22;69706;44.726;37.760;2023-05-07T00:25:42;20.68;57.67
75705;DHT22;69706;44.726;37.760;2023-05-07T00:26:43;20.71;57.50
75705;DHT22;69706;44.726;37.760;2023-05-07T00:27:44;20.66;57.63
75705;DHT22;69706;44.726;37.760;2023-05-07T00:28:46;20.61;57.81
75705;DHT22;69706;44.726;37.760;2023-05-07T00:29:47;20.62;57.70
75705;DHT22;69706;44.726;37.760;2023-05-07T00:30:48;20.64;57.71
75705;DHT22;69706;44.726;37.760;2023-05-07T00:31:49;20.61;57.69
75705;DHT22;69706;44.726;37.760;2023-05-07T00:32:51;20.63;57.74
75705;DHT22;69706;44.726;37.760;2023-05-07T00:33:52;20.59;57.74
75705;DHT22;69706;44.726;37.760;2023-05-07T00:34:54;20.55;57.70
75705;DHT22;69706;44.726;37.760;2023-05-07T00:35:55;20.53;57.55
75705;DHT22;69706;44.726;37.760;2023-05-07T00:36:56;20.49;57.76
75705;DHT22;69706;44.726;37.760;2023-05-07T00:37:58;20.46;57.83
75705;DHT22;69706;44.726;37.760;2023-05-07T00:38:59;20.43;57.92
75705;DHT22;69706;44.726;37.760;2023-05-07T00:40:01;20.42;57.76
75705;DHT22;69706;44.726;37.760;2023-05-07T00:41:05;20.42;57.80
75705;DHT22;69706;44.726;37.760;2023-05-07T00:42:06;20.46;57.85
75705;DHT22;69706;44.726;37.760;2023-05-07T00:43:08;20.46;57.70
75705;DHT22;69706;44.726;37.760;2023-05-07T00:44:10;20.46;57.67
75705;DHT22;69706;44.726;37.760;2023-05-07T00:45:11;20.43;57.72
75705;DHT22;69706;44.726;37.760;2023-05-07T00:46:13;20.46;57.52
75705;DHT22;69706;44.726;37.760;2023-05-07T00:47:14;20.47;57.67
75705;DHT22;69706;44.726;37.760;2023-05-07T00:48:15;20.48;57.53
75705;DHT22;69706;44.726;37.760;2023-05-07T00:49:16;20.50;57.51
75705;DHT22;69706;44.726;37.760;2023-05-07T00:50:19;20.47;57.61
75705;DHT22;69706;44.726;37.760;2023-05-07T00:51:21;20.40;57.59
75705;DHT22;69706;44.726;37.760;2023-05-07T00:52:22;20.37;57.48
75705;DHT22;69706;44.726;37.760;2023-05-07T00:53:26;20.44;57.43
75705;DHT22;69706;44.726;37.760;2023-05-07T00:54:27;20.48;57.26
75705;DHT22;69706;44.726;37.760;2023-05-07T00:55:28;20.42;57.26
75705;DHT22;69706;44.726;37.760;2023-05-07T00:56:30;20.40;57.26
75705;DHT22;69706;44.726;37.760;2023-05-07T00:57:36;20.41;57.21
75705;DHT22;69706;44.726;37.760;2023-05-07T00:58:38;20.45;57.13
75705;DHT22;69706;44.726;37.760;2023-05-07T00:59:39;20.46;57.11
75705;DHT22;69706;44.726;37.760;2023-05-07T01:00:41;20.48;56.89
75705;DHT22;69706;44.726;37.760;2023-05-07T01:01:42;20.50;56.71
75705;DHT22;69706;44.726;37.760;2023-05-07T01:02:44;20.49;56.58
75705;DHT22;69706;44.726;37.760;2023-05-07T01:03:45;20.54;56.75
75705;DHT22;69706;44.726;37.760;2023-05-07T01:04:47;20.55;56.64
75705;DHT22;69706;44.726;37.760;2023-05-07T01:05:48;20.55;56.48
75705;DHT22;69706;44.726;37.760;2023-05-07T01:06:50;20.57;56.39
75705;DHT22;69706;44.726;37.760;2023-05-07T01:07:53;20.60;56.39
75705;DHT22;69706;44.726;37.760;2023-05-07T01:08:55;20.59;56.34
75705;DHT22;69706;44.726;37.760;2023-05-07T01:09:58;20.59;56.35
75705;DHT22;69706;44.726;37.760;2023-05-07T01:10:59;20.58;56.34
75705;DHT22;69706;44.726;37.760;2023-05-07T01:12:01;20.60;56.30
75705;DHT22;69706;44.726;37.760;2023-05-07T01:13:02;20.60;56.12
75705;DHT22;69706;44.726;37.760;2023-05-07T01:14:04;20.60;56.29
75705;DHT22;69706;44.726;37.760;2023-05-07T01:15:06;20.61;56.44
75705;DHT22;69706;44.726;37.760;2023-05-07T01:16:09;20.60;56.28
75705;DHT22;69706;44.726;37.760;2023-05-07T01:17:10;20.59;56.23
75705;DHT22;69706;44.726;37.760;2023-05-07T01:18:12;20.58;56.51
75705;DHT22;69706;44.726;37.760;2023-05-07T01:19:13;20.59;56.42
75705;DHT22;69706;44.726;37.760;2023-05-07T01:20:18;20.61;56.17
75705;DHT22;69706;44.726;37.760;2023-05-07T01:21:23;20.59;55.82
75705;DHT22;69706;44.726;37.760;2023-05-07T01:22:35;20.58;55.77
75705;DHT22;69706;44.726;37.760;2023-05-07T01:23:37;20.54;55.63
75705;DHT22;69706;44.726;37.760;2023-05-07T01:24:39;20.47;55.94
75705;DHT22;69706;44.726;37.760;2023-05-07T01:25:42;20.47;56.01
75705;DHT22;69706;44.726;37.760;2023-05-07T01:26:44;20.48;56.15
75705;DHT22;69706;44.726;37.760;2023-05-07T01:27:48;20.44;56.23
75705;DHT22;69706;44.726;37.760;2023-05-07T01:28:49;20.43;56.19
75705;DHT22;69706;44.726;37.760;2023-05-07T01:29:51;20.42;56.23
75705;DHT22;69706;44.726;37.760;2023-05-07T01:30:53;20.42;56.13
75705;DHT22;69706;44.726;37.760;2023-05-07T01:31:57;20.34;56.01
75705;DHT22;69706;44.726;37.760;2023-05-07T01:33:03;20.35;55.99
75705;DHT22;69706;44.726;37.760;2023-05-07T01:34:05;20.35;55.74
75705;DHT22;69706;44.726;37.760;2023-05-07T01:35:09;20.34;55.77
75705;DHT22;69706;44.726;37.760;2023-05-07T01:36:11;20.29;55.94
75705;DHT22;69706;44.726;37.760;2023-05-07T01:37:12;20.28;55.87
75705;DHT22;69706;44.726;37.760;2023-05-07T01:38:14;20.28;55.86
75705;DHT22;69706;44.726;37.760;2023-05-07T01:39:15;20.25;56.03
75705;DHT22;69706;44.726;37.760;2023-05-07T01:40:17;20.27;56.10
75705;DHT22;69706;44.726;37.760;2023-05-07T01:41:19;20.26;56.13
75705;DHT22;69706;44.726;37.760;2023-05-07T01:42:20;20.28;56.13
75705;DHT22;69706;44.726;37.760;2023-05-07T01:43:22;20.24;55.88
75705;DHT22;69706;44.726;37.760;2023-05-07T01:44:23;20.27;55.87
75705;DHT22;69706;44.726;37.760;2023-05-07T01:45:25;20.26;55.87
75705;DHT22;69706;44.726;37.760;2023-05-07T01:46:26;20.25;55.92
75705;DHT22;69706;44.726;37.760;2023-05-07T01:47:29;20.24;56.20
75705;DHT22;69706;44.726;37.760;2023-05-07T01:48:30;20.22;56.32
75705;DHT22;69706;44.726;37.760;2023-05-07T01:49:32;20.20;56.71
75705;DHT22;69706;44.726;37.760;2023-05-07T01:50:33;20.18;57.10
75705;DHT22;69706;44.726;37.760;2023-05-07T01:51:35;20.14;56.93
75705;DHT22;69706;44.726;37.760;2023-05-07T01:52:37;20.12;57.26
75705;DHT22;69706;44.726;37.760;2023-05-07T01:53:39;20.12;57.43
75705;DHT22;69706;44.726;37.760;2023-05-07T01:54:41;20.13;57.65
75705;DHT22;69706;44.726;37.760;2023-05-07T01:55:43;20.11;57.89
75705;DHT22;69706;44.726;37.760;2023-05-07T01:56:44;20.10;57.65
75705;DHT22;69706;44.726;37.760;2023-05-07T01:57:48;20.11;57.75
75705;DHT22;69706;44.726;37.760;2023-05-07T01:58:50;20.10;57.75
75705;DHT22;69706;44.726;37.760;2023-05-07T01:59:52;20.09;57.83
75705;DHT22;69706;44.726;37.760;2023-05-07T02:00:53;20.07;57.97
75705;DHT22;69706;44.726;37.760;2023-05-07T02:01:55;20.09;57.85
75705;DHT22;69706;44.726;37.760;2023-05-07T02:02:56;20.07;57.85
75705;DHT22;69706;44.726;37.760;2023-05-07T02:04:09;20.05;57.71
75705;DHT22;69706;44.726;37.760;2023-05-07T02:05:10;20.03;57.66
75705;DHT22;69706;44.726;37.760;2023-05-07T02:06:13;20.02;57.65
75705;DHT22;69706;44.726;37.760;2023-05-07T02:07:14;20.03;57.66
75705;DHT22;69706;44.726;37.760;2023-05-07T02:08:16;20.04;57.61
75705;DHT22;69706;44.726;37.760;2023-05-07T02:09:17;20.01;57.54
75705;DHT22;69706;44.726;37.760;2023-05-07T02:10:19;19.99;57.76
75705;DHT22;69706;44.726;37.760;2023-05-07T02:11:21;19.99;57.89
75705;DHT22;69706;44.726;37.760;2023-05-07T02:12:22;19.97;57.83
75705;DHT22;69706;44.726;37.760;2023-05-07T02:13:23;19.95;58.12
75705;DHT22;69706;44.726;37.760;2023-05-07T02:14:25;19.94;58.48
75705;DHT22;69706;44.726;37.760;2023-05-07T02:15:26;19.71;59.06
75705;DHT22;69706;44.726;37.760;2023-05-07T02:16:28;19.55;59.07
75705;DHT22;69706;44.726;37.760;2023-05-07T02:17:30;19.57;58.63
75705;DHT22;69706;44.726;37.760;2023-05-07T02:18:32;19.56;59.05
75705;DHT22;69706;44.726;37.760;2023-05-07T02:19:34;19.53;59.25
75705;DHT22;69706;44.726;37.760;2023-05-07T02:20:36;19.55;59.08
75705;DHT22;69706;44.726;37.760;2023-05-07T02:21:37;19.55;59.09
75705;DHT22;69706;44.726;37.760;2023-05-07T02:22:38;19.58;58.94
75705;DHT22;69706;44.726;37.760;2023-05-07T02:23:40;19.60;58.77
75705;DHT22;69706;44.726;37.760;2023-05-07T02:24:41;19.62;59.27
75705;DHT22;69706;44.726;37.760;2023-05-07T02:25:42;19.61;59.26
75705;DHT22;69706;44.726;37.760;2023-05-07T02:26:43;19.59;59.68
75705;DHT22;69706;44.726;37.760;2023-05-07T02:27:44;19.53;60.11
75705;DHT22;69706;44.726;37.760;2023-05-07T02:28:47;19.50;59.69
75705;DHT22;69706;44.726;37.760;2023-05-07T02:29:48;19.44;59.51
75705;DHT22;69706;44.726;37.760;2023-05-07T02:30:50;19.48;59.58
75705;DHT22;69706;44.726;37.760;2023-05-07T02:31:52;19.51;59.69
75705;DHT22;69706;44.726;37.760;2023-05-07T02:32:53;19.51;59.80
75705;DHT22;69706;44.726;37.760;2023-05-07T02:33:55;19.50;60.15
75705;DHT22;69706;44.726;37.760;2023-05-07T02:34:56;19.45;60.28
75705;DHT22;69706;44.726;37.760;2023-05-07T02:36:04;19.36;60.31
75705;DHT22;69706;44.726;37.760;2023-05-07T02:37:06;19.35;59.85
75705;DHT22;69706;44.726;37.760;2023-05-07T02:38:07;19.37;60.04
75705;DHT22;69706;44.726;37.760;2023-05-07T02:39:11;19.39;60.06
75705;DHT22;69706;44.726;37.760;2023-05-07T02:40:13;19.29;60.60
75705;DHT22;69706;44.726;37.760;2023-05-07T02:41:14;19.33;59.99
75705;DHT22;69706;44.726;37.760;2023-05-07T02:42:15;19.39;60.09
75705;DHT22;69706;44.726;37.760;2023-05-07T02:43:16;19.39;60.29
75705;DHT22;69706;44.726;37.760;2023-05-07T02:44:21;19.40;60.23
75705;DHT22;69706;44.726;37.760;2023-05-07T02:45:24;19.40;60.93
75705;DHT22;69706;44.726;37.760;2023-05-07T02:46:27;19.37;60.83
75705;DHT22;69706;44.726;37.760;2023-05-07T02:47:36;19.40;60.64
75705;DHT22;69706;44.726;37.760;2023-05-07T02:48:38;19.39;60.80
75705;DHT22;69706;44.726;37.760;2023-05-07T02:49:39;19.37;60.71
75705;DHT22;69706;44.726;37.760;2023-05-07T02:50:42;19.38;61.13
75705;DHT22;69706;44.726;37.760;2023-05-07T02:51:43;19.36;61.11
75705;DHT22;69706;44.726;37.760;2023-05-07T02:52:50;19.40;60.67
75705;DHT22;69706;44.726;37.760;2023-05-07T02:53:52;19.41;60.56
75705;DHT22;69706;44.726;37.760;2023-05-07T02:54:53;19.45;61.60
75705;DHT22;69706;44.726;37.760;2023-05-07T02:55:58;19.50;61.70
75705;DHT22;69706;44.726;37.760;2023-05-07T02:56:59;19.55;62.98
75705;DHT22;69706;44.726;37.760;2023-05-07T02:58:02;19.59;62.41
75705;DHT22;69706;44.726;37.760;2023-05-07T02:59:06;19.61;61.90
75705;DHT22;69706;44.726;37.760;2023-05-07T03:00:13;19.67;61.44
75705;DHT22;69706;44.726;37.760;2023-05-07T03:01:19;19.69;61.69
75705;DHT22;69706;44.726;37.760;2023-05-07T03:02:31;19.70;61.22
75705;DHT22;69706;44.726;37.760;2023-05-07T03:03:32;19.74;60.94
75705;DHT22;69706;44.726;37.760;2023-05-07T03:04:33;19.76;60.62
75705;DHT22;69706;44.726;37.760;2023-05-07T03:05:34;19.76;60.89
75705;DHT22;69706;44.726;37.760;2023-05-07T03:06:36;19.77;60.63
75705;DHT22;69706;44.726;37.760;2023-05-07T03:07:37;19.81;60.12
75705;DHT22;69706;44.726;37.760;2023-05-07T03:08:38;19.79;60.25
75705;DHT22;69706;44.726;37.760;2023-05-07T03:09:40;19.81;60.39
75705;DHT22;69706;44.726;37.760;2023-05-07T03:10:41;19.82;60.08
75705;DHT22;69706;44.726;37.760;2023-05-07T03:11:42;19.82;60.18
75705;DHT22;69706;44.726;37.760;2023-05-07T03:12:43;19.81;60.03
75705;DHT22;69706;44.726;37.760;2023-05-07T03:13:49;19.84;60.02
75705;DHT22;69706;44.726;37.760;2023-05-07T03:14:52;19.83;59.99
75705;DHT22;69706;44.726;37.760;2023-05-07T03:15:53;19.86;59.74
75705;DHT22;69706;44.726;37.760;2023-05-07T03:16:55;19.87;59.78
75705;DHT22;69706;44.726;37.760;2023-05-07T03:17:56;19.86;59.80
75705;DHT22;69706;44.726;37.760;2023-05-07T03:18:58;19.85;59.71
75705;DHT22;69706;44.726;37.760;2023-05-07T03:19:59;19.85;59.80
75705;DHT22;69706;44.726;37.760;2023-05-07T03:21:01;19.85;59.77
75705;DHT22;69706;44.726;37.760;2023-05-07T03:22:02;19.84;59.63
75705;DHT22;69706;44.726;37.760;2023-05-07T03:23:03;19.85;59.77
75705;DHT22;69706;44.726;37.760;2023-05-07T03:24:04;19.86;59.72
75705;DHT22;69706;44.726;37.760;2023-05-07T03:25:06;19.85;59.76
75705;DHT22;69706;44.726;37.760;2023-05-07T03:26:07;19.85;59.67
75705;DHT22;69706;44.726;37.760;2023-05-07T03:27:08;19.86;59.63
75705;DHT22;69706;44.726;37.760;2023-05-07T03:28:10;19.85;59.54
75705;DHT22;69706;44.726;37.760;2023-05-07T03:29:17;19.86;59.47
75705;DHT22;69706;44.726;37.760;2023-05-07T03:30:18;19.88;59.59
75705;DHT22;69706;44.726;37.760;2023-05-07T03:31:19;19.88;59.56
75705;DHT22;69706;44.726;37.760;2023-05-07T03:32:20;19.88;59.51
75705;DHT22;69706;44.726;37.760;2023-05-07T03:33:22;19.87;59.62
75705;DHT22;69706;44.726;37.760;2023-05-07T03:34:24;19.88;59.64
75705;DHT22;69706;44.726;37.760;2023-05-07T03:35:25;19.90;59.51
75705;DHT22;69706;44.726;37.760;2023-05-07T03:36:27;19.89;59.53
75705;DHT22;69706;44.726;37.760;2023-05-07T03:37:29;19.88;59.61
75705;DHT22;69706;44.726;37.760;2023-05-07T03:38:31;19.89;59.56
75705;DHT22;69706;44.726;37.760;2023-05-07T03:39:32;19.90;59.52
75705;DHT22;69706;44.726;37.760;2023-05-07T03:40:33;19.89;59.62
75705;DHT22;69706;44.726;37.760;2023-05-07T03:41:35;19.91;59.61
75705;DHT22;69706;44.726;37.760;2023-05-07T03:42:37;19.91;59.44
75705;DHT22;69706;44.726;37.760;2023-05-07T03:43:38;19.92;59.55
75705;DHT22;69706;44.726;37.760;2023-05-07T03:44:43;19.94;59.42
75705;DHT22;69706;44.726;37.760;2023-05-07T03:45:44;19.95;59.41
75705;DHT22;69706;44.726;37.760;2023-05-07T03:46:53;19.95;59.63
75705;DHT22;69706;44.726;37.760;2023-05-07T03:47:55;19.94;59.54
75705;DHT22;69706;44.726;37.760;2023-05-07T03:48:56;19.92;59.44
75705;DHT22;69706;44.726;37.760;2023-05-07T03:49:58;19.94;59.36
75705;DHT22;69706;44.726;37.760;2023-05-07T03:51:00;19.94;59.38
75705;DHT22;69706;44.726;37.760;2023-05-07T03:52:07;19.91;59.44
75705;DHT22;69706;44.726;37.760;2023-05-07T03:53:08;19.91;59.27
75705;DHT22;69706;44.726;37.760;2023-05-07T03:54:13;19.91;59.44
75705;DHT22;69706;44.726;37.760;2023-05-07T03:55:18;19.91;59.23
75705;DHT22;69706;44.726;37.760;2023-05-07T03:56:25;19.90;59.40
75705;DHT22;69706;44.726;37.760;2023-05-07T03:57:29;19.92;59.15
75705;DHT22;69706;44.726;37.760;2023-05-07T03:58:32;19.95;59.30
75705;DHT22;69706;44.726;37.760;2023-05-07T03:59:38;19.94;59.33
75705;DHT22;69706;44.726;37.760;2023-05-07T04:00:42;19.92;59.33
75705;DHT22;69706;44.726;37.760;2023-05-07T04:01:57;19.90;59.22
75705;DHT22;69706;44.726;37.760;2023-05-07T04:03:01;19.90;59.28
75705;DHT22;69706;44.726;37.760;2023-05-07T04:04:05;19.89;59.26
75705;DHT22;69706;44.726;37.760;2023-05-07T04:05:09;19.90;59.06
75705;DHT22;69706;44.726;37.760;2023-05-07T04:06:15;19.91;59.17
75705;DHT22;69706;44.726;37.760;2023-05-07T04:07:19;19.92;59.25
75705;DHT22;69706;44.726;37.760;2023-05-07T04:08:23;19.91;59.24
75705;DHT22;69706;44.726;37.760;2023-05-07T04:09:28;19.91;59.41
75705;DHT22;69706;44.726;37.760;2023-05-07T04:10:31;19.91;59.39
75705;DHT22;69706;44.726;37.760;2023-05-07T04:11:35;19.91;59.48
75705;DHT22;69706;44.726;37.760;2023-05-07T04:12:36;19.92;59.54
75705;DHT22;69706;44.726;37.760;2023-05-07T04:13:38;19.92;59.37
75705;DHT22;69706;44.726;37.760;2023-05-07T04:14:41;19.94;59.44
75705;DHT22;69706;44.726;37.760;2023-05-07T04:15:43;19.94;59.54
75705;DHT22;69706;44.726;37.760;2023-05-07T04:16:46;19.94;59.51
75705;DHT22;69706;44.726;37.760;2023-05-07T04:17:48;19.94;59.41
75705;DHT22;69706;44.726;37.760;2023-05-07T04:18:51;19.95;59.48
75705;DHT22;69706;44.726;37.760;2023-05-07T04:19:53;19.94;59.54
75705;DHT22;69706;44.726;37.760;2023-05-07T04:20:54;19.96;59.41
75705;DHT22;69706;44.726;37.760;2023-05-07T04:21:56;19.96;59.43
75705;DHT22;69706;44.726;37.760;2023-05-07T04:22:57;19.96;59.49
75705;DHT22;69706;44.726;37.760;2023-05-07T04:23:59;19.95;59.47
75705;DHT22;69706;44.726;37.760;2023-05-07T04:25:00;19.96;59.51
75705;DHT22;69706;44.726;37.760;2023-05-07T04:26:02;19.99;59.53
75705;DHT22;69706;44.726;37.760;2023-05-07T04:27:21;19.97;59.50
75705;DHT22;69706;44.726;37.760;2023-05-07T04:28:23;19.97;59.35
75705;DHT22;69706;44.726;37.760;2023-05-07T04:29:25;19.98;59.12
75705;DHT22;69706;44.726;37.760;2023-05-07T04:30:26;19.99;59.31
75705;DHT22;69706;44.726;37.760;2023-05-07T04:31:27;19.98;59.24
75705;DHT22;69706;44.726;37.760;2023-05-07T04:32:29;19.98;59.09
75705;DHT22;69706;44.726;37.760;2023-05-07T04:33:31;20.00;59.20
75705;DHT22;69706;44.726;37.760;2023-05-07T04:34:33;19.98;59.03
75705;DHT22;69706;44.726;37.760;2023-05-07T04:35:35;20.01;58.78
75705;DHT22;69706;44.726;37.760;2023-05-07T04:36:38;20.01;58.90
75705;DHT22;69706;44.726;37.760;2023-05-07T04:37:45;20.02;59.09
75705;DHT22;69706;44.726;37.760;2023-05-07T04:38:48;20.04;58.90
75705;DHT22;69706;44.726;37.760;2023-05-07T04:39:51;20.06;58.98
75705;DHT22;69706;44.726;37.760;2023-05-07T04:40:52;20.07;58.69
75705;DHT22;69706;44.726;37.760;2023-05-07T04:41:57;20.10;58.60
75705;DHT22;69706;44.726;37.760;2023-05-07T04:42:59;20.11;58.79
75705;DHT22;69706;44.726;37.760;2023-05-07T04:44:00;20.12;59.00
75705;DHT22;69706;44.726;37.760;2023-05-07T04:45:05;20.14;58.84
75705;DHT22;69706;44.726;37.760;2023-05-07T04:46:08;20.16;58.67
75705;DHT22;69706;44.726;37.760;2023-05-07T04:47:10;20.18;58.79
75705;DHT22;69706;44.726;37.760;2023-05-07T04:48:11;20.19;58.54
75705;DHT22;69706;44.726;37.760;2023-05-07T04:49:15;20.21;58.80
75705;DHT22;69706;44.726;37.760;2023-05-07T04:50:16;20.21;58.90
75705;DHT22;69706;44.726;37.760;2023-05-07T04:51:19;20.25;58.75
75705;DHT22;69706;44.726;37.760;2023-05-07T04:52:21;20.25;58.96
75705;DHT22;69706;44.726;37.760;2023-05-07T04:53:23;20.28;58.96
75705;DHT22;69706;44.726;37.760;2023-05-07T04:54:25;20.28;58.69
75705;DHT22;69706;44.726;37.760;2023-05-07T04:55:27;20.30;58.54
75705;DHT22;69706;44.726;37.760;2023-05-07T04:56:28;20.31;58.48
75705;DHT22;69706;44.726;37.760;2023-05-07T04:57:31;20.32;58.57
75705;DHT22;69706;44.726;37.760;2023-05-07T04:58:32;20.34;58.42
75705;DHT22;69706;44.726;37.760;2023-05-07T04:59:34;20.34;58.46
75705;DHT22;69706;44.726;37.760;2023-05-07T05:00:35;20.32;58.41
75705;DHT22;69706;44.726;37.760;2023-05-07T05:01:38;20.32;58.74
75705;DHT22;69706;44.726;37.760;2023-05-07T05:02:41;20.34;58.45
75705;DHT22;69706;44.726;37.760;2023-05-07T05:03:42;20.35;58.17
75705;DHT22;69706;44.726;37.760;2023-05-07T05:04:43;20.35;58.45
75705;DHT22;69706;44.726;37.760;2023-05-07T05:05:44;20.35;58.31
75705;DHT22;69706;44.726;37.760;2023-05-07T05:06:46;20.39;58.29
75705;DHT22;69706;44.726;37.760;2023-05-07T05:07:48;20.41;58.28
75705;DHT22;69706;44.726;37.760;2023-05-07T05:08:50;20.43;58.37
75705;DHT22;69706;44.726;37.760;2023-05-07T05:09:51;20.46;58.18
75705;DHT22;69706;44.726;37.760;2023-05-07T05:10:52;20.47;58.40
75705;DHT22;69706;44.726;37.760;2023-05-07T05:11:55;20.50;58.09
75705;DHT22;69706;44.726;37.760;2023-05-07T05:12:56;20.51;58.10
75705;DHT22;69706;44.726;37.760;2023-05-07T05:13:59;20.55;58.03
75705;DHT22;69706;44.726;37.760;2023-05-07T05:15:00;20.59;57.99
75705;DHT22;69706;44.726;37.760;2023-05-07T05:16:02;20.61;57.79
75705;DHT22;69706;44.726;37.760;2023-05-07T05:17:06;20.63;57.84
75705;DHT22;69706;44.726;37.760;2023-05-07T05:18:07;20.68;57.77
75705;DHT22;69706;44.726;37.760;2023-05-07T05:19:09;20.69;57.75
75705;DHT22;69706;44.726;37.760;2023-05-07T05:20:12;20.72;58.06
75705;DHT22;69706;44.726;37.760;2023-05-07T05:21:15;20.73;57.96
75705;DHT22;69706;44.726;37.760;2023-05-07T05:22:18;20.77;58.07
75705;DHT22;69706;44.726;37.760;2023-05-07T05:23:20;20.78;57.89
75705;DHT22;69706;44.726;37.760;2023-05-07T05:24:21;20.80;57.89
75705;DHT22;69706;44.726;37.760;2023-05-07T05:25:22;20.84;57.88
75705;DHT22;69706;44.726;37.760;2023-05-07T05:26:23;20.84;57.86
75705;DHT22;69706;44.726;37.760;2023-05-07T05:27:25;20.83;57.96
75705;DHT22;69706;44.726;37.760;2023-05-07T05:28:26;20.85;57.90
75705;DHT22;69706;44.726;37.760;2023-05-07T05:29:28;20.84;57.80
75705;DHT22;69706;44.726;37.760;2023-05-07T05:30:30;20.84;57.88
75705;DHT22;69706;44.726;37.760;2023-05-07T05:31:32;20.83;57.89
75705;DHT22;69706;44.726;37.760;2023-05-07T05:32:34;20.83;57.80
75705;DHT22;69706;44.726;37.760;2023-05-07T05:33:36;20.85;57.83
75705;DHT22;69706;44.726;37.760;2023-05-07T05:34:39;20.81;57.99
75705;DHT22;69706;44.726;37.760;2023-05-07T05:35:41;20.83;57.89
75705;DHT22;69706;44.726;37.760;2023-05-07T05:36:45;20.83;57.69
75705;DHT22;69706;44.726;37.760;2023-05-07T05:37:48;20.83;58.03
75705;DHT22;69706;44.726;37.760;2023-05-07T05:38:51;20.79;57.96
75705;DHT22;69706;44.726;37.760;2023-05-07T05:39:53;20.78;57.93
75705;DHT22;69706;44.726;37.760;2023-05-07T05:40:56;20.75;57.99
75705;DHT22;69706;44.726;37.760;2023-05-07T05:41:57;20.77;58.06
75705;DHT22;69706;44.726;37.760;2023-05-07T05:42:58;20.76;58.17
75705;DHT22;69706;44.726;37.760;2023-05-07T05:44:00;20.78;57.87
75705;DHT22;69706;44.726;37.760;2023-05-07T05:45:01;20.81;57.74
75705;DHT22;69706;44.726;37.760;2023-05-07T05:46:04;20.85;57.84
75705;DHT22;69706;44.726;37.760;2023-05-07T05:47:07;20.89;57.67
75705;DHT22;69706;44.726;37.760;2023-05-07T05:48:09;20.93;57.77
75705;DHT22;69706;44.726;37.760;2023-05-07T05:49:10;20.98;57.76
75705;DHT22;69706;44.726;37.760;2023-05-07T05:50:12;21.03;57.97
75705;DHT22;69706;44.726;37.760;2023-05-07T05:51:14;21.09;57.93
75705;DHT22;69706;44.726;37.760;2023-05-07T05:52:15;21.18;57.97
75705;DHT22;69706;44.726;37.760;2023-05-07T05:53:18;21.23;57.42
75705;DHT22;69706;44.726;37.760;2023-05-07T05:54:19;21.32;57.44
75705;DHT22;69706;44.726;37.760;2023-05-07T05:55:20;21.38;57.79
75705;DHT22;69706;44.726;37.760;2023-05-07T05:56:22;21.48;58.00
75705;DHT22;69706;44.726;37.760;2023-05-07T05:57:24;21.55;58.13
75705;DHT22;69706;44.726;37.760;2023-05-07T05:58:25;21.65;58.79
75705;DHT22;69706;44.726;37.760;2023-05-07T05:59:31;21.78;59.93
75705;DHT22;69706;44.726;37.760;2023-05-07T06:00:33;21.87;59.80
75705;DHT22;69706;44.726;37.760;2023-05-07T06:01:38;21.93;59.84
75705;DHT22;69706;44.726;37.760;2023-05-07T06:02:39;22.02;60.29
75705;DHT22;69706;44.726;37.760;2023-05-07T06:03:41;22.10;60.51
75705;DHT22;69706;44.726;37.760;2023-05-07T06:04:47;22.16;59.81
75705;DHT22;69706;44.726;37.760;2023-05-07T06:05:52;22.21;58.86
75705;DHT22;69706;44.726;37.760;2023-05-07T06:06:55;22.26;58.32
75705;DHT22;69706;44.726;37.760;2023-05-07T06:07:58;22.31;59.24
75705;DHT22;69706;44.726;37.760;2023-05-07T06:09:03;22.39;59.04
75705;DHT22;69706;44.726;37.760;2023-05-07T06:10:11;22.47;58.80
75705;DHT22;69706;44.726;37.760;2023-05-07T06:11:12;22.54;59.97
75705;DHT22;69706;44.726;37.760;2023-05-07T06:12:16;22.63;58.88
75705;DHT22;69706;44.726;37.760;2023-05-07T06:13:17;22.64;54.96
75705;DHT22;69706;44.726;37.760;2023-05-07T06:14:18;22.72;53.52
75705;DHT22;69706;44.726;37.760;2023-05-07T06:15:20;22.76;56.64
75705;DHT22;69706;44.726;37.760;2023-05-07T06:16:22;22.84;55.58
75705;DHT22;69706;44.726;37.760;2023-05-07T06:17:25;22.90;51.98
75705;DHT22;69706;44.726;37.760;2023-05-07T06:18:26;22.94;51.25
75705;DHT22;69706;44.726;37.760;2023-05-07T06:19:28;23.00;50.77
75705;DHT22;69706;44.726;37.760;2023-05-07T06:20:31;23.03;50.32
75705;DHT22;69706;44.726;37.760;2023-05-07T06:21:34;23.09;50.34
75705;DHT22;69706;44.726;37.760;2023-05-07T06:22:35;23.13;49.64
75705;DHT22;69706;44.726;37.760;2023-05-07T06:23:37;23.17;49.30
75705;DHT22;69706;44.726;37.760;2023-05-07T06:24:39;23.20;49.60
75705;DHT22;69706;44.726;37.760;2023-05-07T06:25:41;23.22;48.18
75705;DHT22;69706;44.726;37.760;2023-05-07T06:26:42;23.23;47.42